createdAt,value
2022-12-03T00:01:11.040Z,34.50
2022-12-03T00:06:12.943Z,34.00
2022-12-03T00:11:14.742Z,33.50
2022-12-03T00:16:16.701Z,28.70
2022-12-03T00:21:18.642Z,35.20
2022-12-03T00:26:20.493Z,29.50
2022-12-03T00:31:24.508Z,25.40
2022-12-03T00:36:26.477Z,33.50
2022-12-03T00:41:29.147Z,35.50
2022-12-03T00:46:31.095Z,33.30
2022-12-03T00:51:33.061Z,29.00
2022-12-03T00:56:34.905Z,35.70
2022-12-03T01:01:36.847Z,37.00
2022-12-03T01:06:39.040Z,29.10
2022-12-03T01:11:41.530Z,37.10
2022-12-03T01:16:44.119Z,33.30
2022-12-03T01:21:48.961Z,27.70
2022-12-03T01:26:50.760Z,31.20
2022-12-03T01:32:11.455Z,35.00
2022-12-03T01:37:14.038Z,32.20
2022-12-03T01:42:18.405Z,29.60
2022-12-03T01:47:27.112Z,37.30
2022-12-03T01:52:32.856Z,37.60
2022-12-03T01:57:37.713Z,36.10
2022-12-03T02:02:39.489Z,33.20
2022-12-03T02:07:42.464Z,30.50
2022-12-03T02:12:51.045Z,38.50
2022-12-03T02:17:53.523Z,33.20
2022-12-03T02:23:11.399Z,29.50
2022-12-03T02:28:13.358Z,31.30
2022-12-03T02:33:15.161Z,33.30
2022-12-03T02:38:21.096Z,34.00
2022-12-03T02:43:23.900Z,34.10
2022-12-03T02:48:29.963Z,36.00
2022-12-03T02:53:38.312Z,35.10
2022-12-03T02:58:41.976Z,28.30
2022-12-03T03:03:45.904Z,29.80
2022-12-03T03:08:48.793Z,36.70
2022-12-03T03:13:50.713Z,33.70
2022-12-03T03:18:52.744Z,26.50
2022-12-03T03:23:54.600Z,32.40
2022-12-03T03:28:57.593Z,37.00
2022-12-03T03:33:59.613Z,30.20
2022-12-03T03:39:01.936Z,33.50
2022-12-03T03:44:07.336Z,35.80
2022-12-03T03:49:10.604Z,34.10
2022-12-03T03:54:13.028Z,35.20
2022-12-03T03:59:15.518Z,30.70
2022-12-03T04:04:20.927Z,34.10
2022-12-03T04:09:22.801Z,33.80
2022-12-03T04:14:24.825Z,33.90
2022-12-03T04:19:26.663Z,33.50
2022-12-03T04:24:28.555Z,32.80
2022-12-03T04:29:30.408Z,29.20
2022-12-03T04:34:51.745Z,37.90
2022-12-03T04:39:54.354Z,30.40
2022-12-03T04:44:58.496Z,35.10
2022-12-03T04:50:00.286Z,33.70
2022-12-03T04:55:02.140Z,32.20
2022-12-03T05:00:05.644Z,29.50
2022-12-03T05:05:07.949Z,29.90
2022-12-03T05:10:10.946Z,30.40
2022-12-03T05:15:12.719Z,36.30
2022-12-03T05:20:33.491Z,32.70
2022-12-03T05:25:35.360Z,28.20
2022-12-03T05:30:37.312Z,30.90
2022-12-03T05:35:39.265Z,36.00
2022-12-03T05:40:41.279Z,35.00
2022-12-03T05:45:44.395Z,26.00
2022-12-03T05:50:47.036Z,30.50
2022-12-03T05:55:48.911Z,32.70
2022-12-03T06:00:50.809Z,31.60
2022-12-03T06:05:52.673Z,45.00
2022-12-03T06:10:54.482Z,42.40
2022-12-03T06:15:56.338Z,37.20
2022-12-03T06:20:58.194Z,43.30
2022-12-03T06:26:00.024Z,39.70
2022-12-03T06:31:01.868Z,40.90
2022-12-03T06:36:03.883Z,34.90
2022-12-03T06:41:05.848Z,31.80
2022-12-03T06:46:07.680Z,35.70
2022-12-03T06:51:09.615Z,39.60
2022-12-03T06:56:11.466Z,37.60
2022-12-03T07:01:13.313Z,40.50
2022-12-03T07:06:15.445Z,43.50
2022-12-03T07:11:32.520Z,42.40
2022-12-03T07:16:35.833Z,41.60
2022-12-03T07:21:38.332Z,44.10
2022-12-03T07:26:40.327Z,43.20
2022-12-03T07:31:42.189Z,49.80
2022-12-03T07:36:44.136Z,48.80
2022-12-03T07:41:46.008Z,52.20
2022-12-03T07:46:48.096Z,50.10
2022-12-03T07:51:54.475Z,43.20
2022-12-03T07:57:01.194Z,54.40
2022-12-03T08:02:03.887Z,65.30
2022-12-03T08:07:06.315Z,54.60
2022-12-03T08:12:17.082Z,54.10
2022-12-03T08:17:19.913Z,45.30
2022-12-03T08:22:22.450Z,56.20
2022-12-03T08:27:24.293Z,50.60
2022-12-03T08:32:26.343Z,55.00
2022-12-03T08:37:29.856Z,50.10
2022-12-03T08:42:42.832Z,60.40
2022-12-03T08:47:44.761Z,58.20
2022-12-03T08:52:46.605Z,57.50
2022-12-03T08:57:48.526Z,60.20
2022-12-03T09:02:59.572Z,58.60
2022-12-03T09:08:01.498Z,60.00
2022-12-03T09:13:03.444Z,54.40
2022-12-03T09:18:07.633Z,45.00
2022-12-03T09:23:09.472Z,51.80
2022-12-03T09:28:11.292Z,54.20
2022-12-03T09:33:14.174Z,48.50
2022-12-03T09:38:15.987Z,47.90
2022-12-03T09:43:18.645Z,54.30
2022-12-03T09:48:21.637Z,46.70
2022-12-03T09:53:26.799Z,49.20
2022-12-03T09:58:34.501Z,65.30
2022-12-03T10:03:41.183Z,44.40
2022-12-03T10:08:43.218Z,57.50
2022-12-03T10:13:46.250Z,55.20
2022-12-03T10:18:54.495Z,50.10
2022-12-03T10:24:25.842Z,47.70
2022-12-03T10:29:33.955Z,45.10
2022-12-03T10:34:38.998Z,49.00
2022-12-03T10:39:56.262Z,52.10
2022-12-03T10:45:37.075Z,60.00
2022-12-03T10:50:50.666Z,54.20
2022-12-03T10:56:04.732Z,60.00
2022-12-03T11:01:16.073Z,55.40
2022-12-03T11:06:20.568Z,61.10
2022-12-03T11:11:28.077Z,58.30
2022-12-03T11:16:42.155Z,80.80
2022-12-03T11:22:05.980Z,59.50
2022-12-03T11:27:10.840Z,58.30
2022-12-03T11:32:39.478Z,55.90
2022-12-03T11:37:41.378Z,63.60
2022-12-03T11:42:45.019Z,56.80
2022-12-03T11:48:13.853Z,56.90
2022-12-03T11:53:24.800Z,58.20
2022-12-03T11:58:29.860Z,60.00
2022-12-03T12:03:34.398Z,56.30
2022-12-03T12:08:42.163Z,55.70
2022-12-03T12:13:43.933Z,52.60
2022-12-03T12:18:55.020Z,57.70
2022-12-03T12:23:57.264Z,73.00
2022-12-03T12:28:59.042Z,70.90
2022-12-03T12:34:01.668Z,65.20
2022-12-03T12:39:10.719Z,53.40
2022-12-03T12:44:15.360Z,69.20
2022-12-03T12:49:21.598Z,60.20
2022-12-03T12:54:23.881Z,61.80
2022-12-03T12:59:26.065Z,61.70
2022-12-03T13:04:30.721Z,64.40
2022-12-03T13:09:33.109Z,63.10
2022-12-03T13:14:37.254Z,62.90
2022-12-03T13:19:48.311Z,62.30
2022-12-03T13:25:57.825Z,68.50
2022-12-03T13:30:54.300Z,70.50
2022-12-03T13:35:56.628Z,63.90
2022-12-03T13:41:01.574Z,59.10
2022-12-03T13:46:03.496Z,66.20
2022-12-03T13:51:26.315Z,58.30
2022-12-03T13:56:30.918Z,67.50
2022-12-03T14:01:33.022Z,72.00
2022-12-03T14:06:34.879Z,65.10
2022-12-03T14:11:55.596Z,57.10
2022-12-03T14:17:00.097Z,70.50
2022-12-03T14:22:03.094Z,56.90
2022-12-03T14:27:04.927Z,66.70
2022-12-03T14:32:06.826Z,61.70
2022-12-03T14:37:08.718Z,56.60
2022-12-03T14:42:13.403Z,61.50
2022-12-03T14:47:18.570Z,66.80
2022-12-03T14:52:20.526Z,61.40
2022-12-03T14:57:22.349Z,62.20
2022-12-03T15:02:24.334Z,60.10
2022-12-03T15:07:26.388Z,69.00
2022-12-03T15:12:28.295Z,69.90
2022-12-03T15:17:32.156Z,80.90
2022-12-03T15:22:34.267Z,71.90
2022-12-03T15:27:36.101Z,62.10
2022-12-03T15:32:37.974Z,71.40
2022-12-03T15:37:40.564Z,57.80
2022-12-03T15:42:43.787Z,57.20
2022-12-03T15:47:46.069Z,60.40
2022-12-03T15:52:47.999Z,58.90
2022-12-03T15:57:50.481Z,76.40
2022-12-03T16:02:53.046Z,75.60
2022-12-03T16:07:55.347Z,65.20
2022-12-03T16:12:57.231Z,67.60
2022-12-03T16:17:59.082Z,72.60
2022-12-03T16:23:00.870Z,68.20
2022-12-03T16:28:02.754Z,68.80
2022-12-03T16:33:04.904Z,79.30
2022-12-03T16:38:06.747Z,75.10
2022-12-03T16:43:10.651Z,79.80
2022-12-03T16:48:12.450Z,70.50
2022-12-03T16:53:16.407Z,71.70
2022-12-03T16:58:21.573Z,89.90
2022-12-03T17:03:24.313Z,72.90
2022-12-03T17:08:28.553Z,77.90
2022-12-03T17:13:30.345Z,68.60
2022-12-03T17:18:32.163Z,78.60
2022-12-03T17:23:33.925Z,60.50
2022-12-03T17:28:35.796Z,58.70
2022-12-03T17:33:37.685Z,64.00
2022-12-03T17:38:41.040Z,63.60
2022-12-03T17:43:42.854Z,59.30
2022-12-03T17:48:44.754Z,67.10
2022-12-03T17:53:46.823Z,58.70
2022-12-03T17:58:48.631Z,62.30
2022-12-03T18:03:50.446Z,62.70
2022-12-03T18:08:52.393Z,64.90
2022-12-03T18:13:54.212Z,63.20
2022-12-03T18:18:57.610Z,57.90
2022-12-03T18:24:02.389Z,53.30
2022-12-03T18:29:04.267Z,54.00
2022-12-03T18:34:06.084Z,53.90
2022-12-03T18:39:18.332Z,58.70
2022-12-03T18:44:20.699Z,73.30
2022-12-03T18:49:22.561Z,61.30
2022-12-03T18:54:24.394Z,66.10
2022-12-03T18:59:26.209Z,61.40
2022-12-03T19:04:28.190Z,62.80
2022-12-03T19:09:30.056Z,61.60
2022-12-03T19:14:33.221Z,61.70
2022-12-03T19:19:36.318Z,69.60
2022-12-03T19:24:38.171Z,54.80
2022-12-03T19:29:40.073Z,63.40
2022-12-03T19:34:41.882Z,60.70
2022-12-03T19:39:43.726Z,65.10
2022-12-03T19:44:45.497Z,73.00
2022-12-03T19:49:47.277Z,53.20
2022-12-03T19:54:49.233Z,62.40
2022-12-03T19:59:51.031Z,59.20
2022-12-03T20:04:52.840Z,59.70
2022-12-03T20:09:54.866Z,62.50
2022-12-03T20:14:57.006Z,61.20
2022-12-03T20:19:58.854Z,65.70
2022-12-03T20:25:00.745Z,67.20
2022-12-03T20:30:02.686Z,74.20
2022-12-03T20:35:04.945Z,61.90
2022-12-03T20:40:07.632Z,62.20
2022-12-03T20:45:10.315Z,63.70
2022-12-03T20:50:12.301Z,50.30
2022-12-03T20:55:14.210Z,46.70
2022-12-03T21:00:16.942Z,64.10
2022-12-03T21:05:18.886Z,64.30
2022-12-03T21:10:36.052Z,69.80
2022-12-03T21:15:37.884Z,67.50
2022-12-03T21:20:44.933Z,64.60
2022-12-03T21:25:46.767Z,73.60
2022-12-03T21:30:48.694Z,55.70
2022-12-03T21:35:50.711Z,53.20
2022-12-03T21:40:52.946Z,62.70
2022-12-03T21:45:55.679Z,55.50
2022-12-03T21:51:17.295Z,67.50
2022-12-03T21:56:19.591Z,70.80
2022-12-03T22:01:24.087Z,72.90
2022-12-03T22:06:26.417Z,65.10
2022-12-03T22:11:28.263Z,64.00
2022-12-03T22:16:30.502Z,66.10
2022-12-03T22:21:32.561Z,57.80
2022-12-03T22:26:35.326Z,58.60
2022-12-03T22:31:38.458Z,55.50
2022-12-03T22:36:40.392Z,65.80
2022-12-03T22:41:42.242Z,63.00
2022-12-03T22:46:44.194Z,63.80
2022-12-03T22:51:47.471Z,63.90
2022-12-03T22:56:49.367Z,63.40
2022-12-03T23:01:51.188Z,60.40
2022-12-03T23:06:53.082Z,57.60
2022-12-03T23:11:55.202Z,58.30
2022-12-03T23:16:56.994Z,54.40
2022-12-03T23:21:58.823Z,67.30
2022-12-03T23:27:00.688Z,60.90
2022-12-03T23:32:02.584Z,58.30
2022-12-03T23:37:04.348Z,54.80
2022-12-03T23:42:06.165Z,59.10
2022-12-03T23:47:07.947Z,56.00
2022-12-03T23:52:09.811Z,62.60
2022-12-03T23:57:12.775Z,61.50
